sensor_id;sensor_type;location;lat;lon;timestamp;P1;durP1;ratioP1;P2;durP2;ratioP2
21860;SDS011;11095;48.066;8.540;2023-04-03T00:01:35;35.45;;;17.40;;
21860;SDS011;11095;48.066;8.540;2023-04-03T00:04:03;33.35;;;17.33;;
21860;SDS011;11095;48.066;8.540;2023-04-03T00:06:29;34.95;;;17.13;;
21860;SDS011;11095;48.066;8.540;2023-04-03T00:08:55;31.23;;;16.15;;
21860;SDS011;11095;48.066;8.540;2023-04-03T00:11:21;31.63;;;15.70;;
21860;SDS011;11095;48.066;8.540;2023-04-03T00:13:47;25.17;;;13.60;;
21860;SDS011;11095;48.066;8.540;2023-04-03T00:16:12;25.77;;;14.30;;
21860;SDS011;11095;48.066;8.540;2023-04-03T00:18:38;29.30;;;14.10;;
21860;SDS011;11095;48.066;8.540;2023-04-03T00:21:05;27.35;;;15.13;;
21860;SDS011;11095;48.066;8.540;2023-04-03T00:23:31;27.42;;;14.68;;
21860;SDS011;11095;48.066;8.540;2023-04-03T00:25:58;23.27;;;13.73;;
21860;SDS011;11095;48.066;8.540;2023-04-03T00:28:24;25.10;;;13.75;;
21860;SDS011;11095;48.066;8.540;2023-04-03T00:30:50;27.63;;;14.45;;
21860;SDS011;11095;48.066;8.540;2023-04-03T00:33:16;24.75;;;13.60;;
21860;SDS011;11095;48.066;8.540;2023-04-03T00:35:42;24.48;;;13.93;;
21860;SDS011;11095;48.066;8.540;2023-04-03T00:38:07;21.05;;;12.38;;
21860;SDS011;11095;48.066;8.540;2023-04-03T00:40:34;22.50;;;12.45;;
21860;SDS011;11095;48.066;8.540;2023-04-03T00:43:02;22.88;;;13.90;;
21860;SDS011;11095;48.066;8.540;2023-04-03T00:45:41;23.75;;;13.57;;
21860;SDS011;11095;48.066;8.540;2023-04-03T00:48:10;24.83;;;13.80;;
21860;SDS011;11095;48.066;8.540;2023-04-03T00:50:41;25.08;;;14.10;;
21860;SDS011;11095;48.066;8.540;2023-04-03T00:53:08;24.35;;;14.45;;
21860;SDS011;11095;48.066;8.540;2023-04-03T00:55:39;25.17;;;14.20;;
21860;SDS011;11095;48.066;8.540;2023-04-03T00:58:06;22.27;;;12.88;;
21860;SDS011;11095;48.066;8.540;2023-04-03T01:00:33;23.15;;;13.80;;
21860;SDS011;11095;48.066;8.540;2023-04-03T01:03:00;24.77;;;14.57;;
21860;SDS011;11095;48.066;8.540;2023-04-03T01:05:26;24.45;;;14.32;;
21860;SDS011;11095;48.066;8.540;2023-04-03T01:07:52;25.50;;;14.52;;
21860;SDS011;11095;48.066;8.540;2023-04-03T01:10:18;26.83;;;14.35;;
21860;SDS011;11095;48.066;8.540;2023-04-03T01:12:46;24.90;;;14.35;;
21860;SDS011;11095;48.066;8.540;2023-04-03T01:15:14;27.15;;;15.98;;
21860;SDS011;11095;48.066;8.540;2023-04-03T01:18:00;24.33;;;14.93;;
21860;SDS011;11095;48.066;8.540;2023-04-03T01:28:08;25.80;;;14.80;;
21860;SDS011;11095;48.066;8.540;2023-04-03T01:30:39;24.17;;;14.93;;
21860;SDS011;11095;48.066;8.540;2023-04-03T01:33:25;23.35;;;14.15;;
21860;SDS011;11095;48.066;8.540;2023-04-03T01:35:51;24.27;;;14.57;;
21860;SDS011;11095;48.066;8.540;2023-04-03T01:38:17;26.35;;;15.43;;
21860;SDS011;11095;48.066;8.540;2023-04-03T01:40:42;28.10;;;15.98;;
21860;SDS011;11095;48.066;8.540;2023-04-03T01:43:08;29.58;;;16.08;;
21860;SDS011;11095;48.066;8.540;2023-04-03T01:45:34;28.13;;;16.63;;
21860;SDS011;11095;48.066;8.540;2023-04-03T01:47:59;30.20;;;17.30;;
21860;SDS011;11095;48.066;8.540;2023-04-03T01:50:25;30.65;;;17.27;;
21860;SDS011;11095;48.066;8.540;2023-04-03T01:52:51;29.95;;;16.67;;
21860;SDS011;11095;48.066;8.540;2023-04-03T01:55:16;32.25;;;18.25;;
21860;SDS011;11095;48.066;8.540;2023-04-03T01:57:42;33.40;;;17.88;;
21860;SDS011;11095;48.066;8.540;2023-04-03T02:00:08;32.10;;;17.20;;
21860;SDS011;11095;48.066;8.540;2023-04-03T02:02:34;28.98;;;16.88;;
21860;SDS011;11095;48.066;8.540;2023-04-03T02:05:00;31.95;;;16.88;;
21860;SDS011;11095;48.066;8.540;2023-04-03T02:07:26;32.25;;;17.02;;
21860;SDS011;11095;48.066;8.540;2023-04-03T02:09:52;31.25;;;17.35;;
21860;SDS011;11095;48.066;8.540;2023-04-03T02:12:17;32.17;;;16.83;;
21860;SDS011;11095;48.066;8.540;2023-04-03T02:14:43;31.23;;;18.23;;
21860;SDS011;11095;48.066;8.540;2023-04-03T02:17:09;37.55;;;18.83;;
21860;SDS011;11095;48.066;8.540;2023-04-03T02:19:35;35.67;;;19.30;;
21860;SDS011;11095;48.066;8.540;2023-04-03T02:22:01;34.40;;;18.08;;
21860;SDS011;11095;48.066;8.540;2023-04-03T02:24:30;39.22;;;18.65;;
21860;SDS011;11095;48.066;8.540;2023-04-03T02:26:57;37.05;;;19.20;;
21860;SDS011;11095;48.066;8.540;2023-04-03T02:29:22;34.63;;;19.02;;
21860;SDS011;11095;48.066;8.540;2023-04-03T02:31:48;34.85;;;18.30;;
21860;SDS011;11095;48.066;8.540;2023-04-03T02:34:15;39.88;;;19.95;;
21860;SDS011;11095;48.066;8.540;2023-04-03T02:36:41;40.17;;;19.50;;
21860;SDS011;11095;48.066;8.540;2023-04-03T02:39:07;38.15;;;19.95;;
21860;SDS011;11095;48.066;8.540;2023-04-03T02:41:33;35.75;;;18.85;;
21860;SDS011;11095;48.066;8.540;2023-04-03T02:44:01;37.97;;;17.88;;
21860;SDS011;11095;48.066;8.540;2023-04-03T02:46:28;34.20;;;18.08;;
21860;SDS011;11095;48.066;8.540;2023-04-03T02:48:53;37.10;;;18.88;;
21860;SDS011;11095;48.066;8.540;2023-04-03T02:51:19;34.97;;;17.98;;
21860;SDS011;11095;48.066;8.540;2023-04-03T02:53:45;37.78;;;18.88;;
21860;SDS011;11095;48.066;8.540;2023-04-03T02:56:10;37.15;;;18.95;;
21860;SDS011;11095;48.066;8.540;2023-04-03T02:58:36;33.28;;;18.67;;
21860;SDS011;11095;48.066;8.540;2023-04-03T03:01:02;33.55;;;18.85;;
21860;SDS011;11095;48.066;8.540;2023-04-03T03:03:27;33.50;;;18.05;;
21860;SDS011;11095;48.066;8.540;2023-04-03T03:06:03;37.83;;;18.98;;
21860;SDS011;11095;48.066;8.540;2023-04-03T03:08:29;31.23;;;17.27;;
21860;SDS011;11095;48.066;8.540;2023-04-03T03:10:55;30.73;;;17.45;;
21860;SDS011;11095;48.066;8.540;2023-04-03T03:13:21;32.28;;;17.27;;
21860;SDS011;11095;48.066;8.540;2023-04-03T03:15:46;31.80;;;17.33;;
21860;SDS011;11095;48.066;8.540;2023-04-03T03:18:12;33.70;;;17.48;;
21860;SDS011;11095;48.066;8.540;2023-04-03T03:20:37;30.08;;;16.88;;
21860;SDS011;11095;48.066;8.540;2023-04-03T03:23:03;31.15;;;18.23;;
21860;SDS011;11095;48.066;8.540;2023-04-03T03:25:29;32.22;;;17.95;;
21860;SDS011;11095;48.066;8.540;2023-04-03T03:27:54;32.42;;;17.60;;
21860;SDS011;11095;48.066;8.540;2023-04-03T03:30:20;33.92;;;18.40;;
21860;SDS011;11095;48.066;8.540;2023-04-03T03:32:46;32.63;;;18.55;;
21860;SDS011;11095;48.066;8.540;2023-04-03T03:35:11;34.70;;;18.55;;
21860;SDS011;11095;48.066;8.540;2023-04-03T03:37:37;31.85;;;17.70;;
21860;SDS011;11095;48.066;8.540;2023-04-03T03:40:03;37.00;;;18.83;;
21860;SDS011;11095;48.066;8.540;2023-04-03T03:42:29;36.22;;;18.85;;
21860;SDS011;11095;48.066;8.540;2023-04-03T03:44:54;31.98;;;17.98;;
21860;SDS011;11095;48.066;8.540;2023-04-03T03:47:20;30.85;;;17.77;;
21860;SDS011;11095;48.066;8.540;2023-04-03T03:49:46;33.00;;;18.88;;
21860;SDS011;11095;48.066;8.540;2023-04-03T03:52:11;32.40;;;18.38;;
21860;SDS011;11095;48.066;8.540;2023-04-03T03:54:37;34.70;;;18.67;;
21860;SDS011;11095;48.066;8.540;2023-04-03T03:57:03;34.47;;;18.38;;
21860;SDS011;11095;48.066;8.540;2023-04-03T03:59:28;37.10;;;19.83;;
21860;SDS011;11095;48.066;8.540;2023-04-03T04:01:54;38.08;;;19.75;;
21860;SDS011;11095;48.066;8.540;2023-04-03T04:04:20;36.17;;;20.27;;
21860;SDS011;11095;48.066;8.540;2023-04-03T04:06:46;40.13;;;20.30;;
21860;SDS011;11095;48.066;8.540;2023-04-03T04:09:11;38.40;;;20.15;;
21860;SDS011;11095;48.066;8.540;2023-04-03T04:11:37;38.92;;;20.77;;
21860;SDS011;11095;48.066;8.540;2023-04-03T04:14:04;45.22;;;22.60;;
21860;SDS011;11095;48.066;8.540;2023-04-03T04:16:31;45.53;;;21.98;;
21860;SDS011;11095;48.066;8.540;2023-04-03T04:18:56;40.65;;;21.70;;
21860;SDS011;11095;48.066;8.540;2023-04-03T04:21:22;41.40;;;21.67;;
21860;SDS011;11095;48.066;8.540;2023-04-03T04:23:48;41.08;;;22.10;;
21860;SDS011;11095;48.066;8.540;2023-04-03T04:26:13;40.10;;;22.27;;
21860;SDS011;11095;48.066;8.540;2023-04-03T04:28:39;41.22;;;22.02;;
21860;SDS011;11095;48.066;8.540;2023-04-03T04:31:04;40.78;;;23.17;;
21860;SDS011;11095;48.066;8.540;2023-04-03T04:33:30;42.25;;;22.02;;
21860;SDS011;11095;48.066;8.540;2023-04-03T04:35:56;43.22;;;22.60;;
21860;SDS011;11095;48.066;8.540;2023-04-03T04:38:22;39.53;;;21.50;;
21860;SDS011;11095;48.066;8.540;2023-04-03T04:40:48;41.50;;;21.98;;
21860;SDS011;11095;48.066;8.540;2023-04-03T04:43:14;39.08;;;21.33;;
21860;SDS011;11095;48.066;8.540;2023-04-03T04:45:40;36.53;;;20.33;;
21860;SDS011;11095;48.066;8.540;2023-04-03T04:48:06;33.58;;;19.25;;
21860;SDS011;11095;48.066;8.540;2023-04-03T04:50:32;37.78;;;21.10;;
21860;SDS011;11095;48.066;8.540;2023-04-03T04:52:58;35.20;;;20.52;;
21860;SDS011;11095;48.066;8.540;2023-04-03T04:55:23;37.72;;;19.92;;
21860;SDS011;11095;48.066;8.540;2023-04-03T04:57:49;33.47;;;19.35;;
21860;SDS011;11095;48.066;8.540;2023-04-03T05:00:15;32.20;;;18.95;;
21860;SDS011;11095;48.066;8.540;2023-04-03T05:02:41;29.00;;;17.92;;
21860;SDS011;11095;48.066;8.540;2023-04-03T05:05:07;31.27;;;18.08;;
21860;SDS011;11095;48.066;8.540;2023-04-03T05:07:33;29.17;;;18.15;;
21860;SDS011;11095;48.066;8.540;2023-04-03T05:10:00;29.77;;;17.90;;
21860;SDS011;11095;48.066;8.540;2023-04-03T05:12:27;27.35;;;17.52;;
21860;SDS011;11095;48.066;8.540;2023-04-03T05:14:54;27.30;;;16.73;;
21860;SDS011;11095;48.066;8.540;2023-04-03T05:17:19;29.52;;;17.27;;
21860;SDS011;11095;48.066;8.540;2023-04-03T05:19:47;27.10;;;17.02;;
21860;SDS011;11095;48.066;8.540;2023-04-03T05:22:13;27.52;;;17.15;;
21860;SDS011;11095;48.066;8.540;2023-04-03T05:24:40;27.25;;;16.98;;
21860;SDS011;11095;48.066;8.540;2023-04-03T05:27:05;27.73;;;17.02;;
21860;SDS011;11095;48.066;8.540;2023-04-03T05:29:31;31.08;;;17.60;;
21860;SDS011;11095;48.066;8.540;2023-04-03T05:31:56;28.90;;;17.35;;
21860;SDS011;11095;48.066;8.540;2023-04-03T05:34:22;29.52;;;17.30;;
21860;SDS011;11095;48.066;8.540;2023-04-03T05:36:48;25.52;;;15.13;;
21860;SDS011;11095;48.066;8.540;2023-04-03T05:39:14;26.15;;;15.93;;
21860;SDS011;11095;48.066;8.540;2023-04-03T05:41:39;26.00;;;15.85;;
21860;SDS011;11095;48.066;8.540;2023-04-03T05:44:05;26.73;;;16.25;;
21860;SDS011;11095;48.066;8.540;2023-04-03T05:46:31;24.83;;;15.07;;
21860;SDS011;11095;48.066;8.540;2023-04-03T05:48:56;25.90;;;16.00;;
21860;SDS011;11095;48.066;8.540;2023-04-03T05:51:24;26.35;;;15.35;;
21860;SDS011;11095;48.066;8.540;2023-04-03T05:53:55;25.17;;;16.05;;
21860;SDS011;11095;48.066;8.540;2023-04-03T05:56:27;24.98;;;15.90;;
21860;SDS011;11095;48.066;8.540;2023-04-03T05:58:53;22.35;;;14.77;;
21860;SDS011;11095;48.066;8.540;2023-04-03T06:01:20;21.10;;;13.00;;
21860;SDS011;11095;48.066;8.540;2023-04-03T06:03:45;21.83;;;12.98;;
21860;SDS011;11095;48.066;8.540;2023-04-03T06:06:12;21.88;;;13.85;;
21860;SDS011;11095;48.066;8.540;2023-04-03T06:08:39;20.15;;;13.18;;
21860;SDS011;11095;48.066;8.540;2023-04-03T06:11:05;19.27;;;12.88;;
21860;SDS011;11095;48.066;8.540;2023-04-03T06:13:30;18.95;;;12.57;;
21860;SDS011;11095;48.066;8.540;2023-04-03T06:15:56;19.95;;;13.00;;
21860;SDS011;11095;48.066;8.540;2023-04-03T06:18:22;19.33;;;13.18;;
21860;SDS011;11095;48.066;8.540;2023-04-03T06:20:48;19.13;;;12.65;;
21860;SDS011;11095;48.066;8.540;2023-04-03T06:23:13;17.60;;;11.43;;
21860;SDS011;11095;48.066;8.540;2023-04-03T06:25:39;14.73;;;10.45;;
21860;SDS011;11095;48.066;8.540;2023-04-03T06:28:05;10.15;;;7.57;;
21860;SDS011;11095;48.066;8.540;2023-04-03T06:30:34;9.10;;;7.07;;
21860;SDS011;11095;48.066;8.540;2023-04-03T06:33:00;8.82;;;6.07;;
21860;SDS011;11095;48.066;8.540;2023-04-03T06:35:25;7.38;;;5.88;;
21860;SDS011;11095;48.066;8.540;2023-04-03T06:37:53;8.15;;;6.57;;
21860;SDS011;11095;48.066;8.540;2023-04-03T06:40:19;8.68;;;6.65;;
21860;SDS011;11095;48.066;8.540;2023-04-03T06:42:48;8.68;;;6.00;;
21860;SDS011;11095;48.066;8.540;2023-04-03T06:45:13;7.88;;;5.97;;
21860;SDS011;11095;48.066;8.540;2023-04-03T06:47:39;7.50;;;5.63;;
21860;SDS011;11095;48.066;8.540;2023-04-03T06:50:05;7.45;;;5.68;;
21860;SDS011;11095;48.066;8.540;2023-04-03T06:52:32;7.40;;;5.82;;
21860;SDS011;11095;48.066;8.540;2023-04-03T06:54:57;8.55;;;5.70;;
21860;SDS011;11095;48.066;8.540;2023-04-03T06:57:24;8.93;;;6.57;;
21860;SDS011;11095;48.066;8.540;2023-04-03T06:59:50;7.53;;;5.88;;
21860;SDS011;11095;48.066;8.540;2023-04-03T07:02:16;6.90;;;5.35;;
21860;SDS011;11095;48.066;8.540;2023-04-03T07:04:42;7.93;;;5.65;;
21860;SDS011;11095;48.066;8.540;2023-04-03T07:07:10;7.22;;;5.53;;
21860;SDS011;11095;48.066;8.540;2023-04-03T07:09:36;6.43;;;5.43;;
21860;SDS011;11095;48.066;8.540;2023-04-03T07:12:02;7.10;;;5.22;;
21860;SDS011;11095;48.066;8.540;2023-04-03T07:14:28;7.05;;;5.68;;
21860;SDS011;11095;48.066;8.540;2023-04-03T07:16:53;8.90;;;6.30;;
21860;SDS011;11095;48.066;8.540;2023-04-03T07:19:19;8.45;;;5.80;;
21860;SDS011;11095;48.066;8.540;2023-04-03T07:21:46;10.15;;;6.22;;
21860;SDS011;11095;48.066;8.540;2023-04-03T07:24:11;11.82;;;6.45;;
21860;SDS011;11095;48.066;8.540;2023-04-03T07:26:38;9.65;;;6.72;;
21860;SDS011;11095;48.066;8.540;2023-04-03T07:29:04;13.45;;;6.40;;
21860;SDS011;11095;48.066;8.540;2023-04-03T07:31:29;9.98;;;6.22;;
21860;SDS011;11095;48.066;8.540;2023-04-03T07:33:55;12.75;;;7.32;;
21860;SDS011;11095;48.066;8.540;2023-04-03T07:36:21;9.52;;;6.00;;
21860;SDS011;11095;48.066;8.540;2023-04-03T07:38:47;9.15;;;5.47;;
21860;SDS011;11095;48.066;8.540;2023-04-03T07:41:17;10.85;;;5.93;;
21860;SDS011;11095;48.066;8.540;2023-04-03T07:43:45;6.82;;;4.93;;
21860;SDS011;11095;48.066;8.540;2023-04-03T07:46:12;6.03;;;4.43;;
21860;SDS011;11095;48.066;8.540;2023-04-03T07:48:37;5.47;;;4.03;;
21860;SDS011;11095;48.066;8.540;2023-04-03T07:51:04;5.40;;;3.83;;
21860;SDS011;11095;48.066;8.540;2023-04-03T07:53:30;5.80;;;3.90;;
21860;SDS011;11095;48.066;8.540;2023-04-03T07:55:58;6.15;;;4.13;;
21860;SDS011;11095;48.066;8.540;2023-04-03T07:58:25;4.35;;;3.75;;
21860;SDS011;11095;48.066;8.540;2023-04-03T08:00:51;3.33;;;3.03;;
21860;SDS011;11095;48.066;8.540;2023-04-03T08:03:16;3.70;;;3.10;;
21860;SDS011;11095;48.066;8.540;2023-04-03T08:05:45;4.30;;;3.35;;
21860;SDS011;11095;48.066;8.540;2023-04-03T08:08:13;3.60;;;2.92;;
21860;SDS011;11095;48.066;8.540;2023-04-03T08:10:40;4.30;;;2.78;;
21860;SDS011;11095;48.066;8.540;2023-04-03T08:13:07;4.35;;;3.08;;
21860;SDS011;11095;48.066;8.540;2023-04-03T08:15:33;3.58;;;3.28;;
21860;SDS011;11095;48.066;8.540;2023-04-03T08:17:59;3.38;;;2.90;;
21860;SDS011;11095;48.066;8.540;2023-04-03T08:20:25;3.13;;;2.70;;
21860;SDS011;11095;48.066;8.540;2023-04-03T08:22:52;3.80;;;3.10;;
21860;SDS011;11095;48.066;8.540;2023-04-03T08:25:17;3.38;;;2.70;;
21860;SDS011;11095;48.066;8.540;2023-04-03T08:27:43;3.63;;;2.75;;
21860;SDS011;11095;48.066;8.540;2023-04-03T08:30:09;3.67;;;2.83;;
21860;SDS011;11095;48.066;8.540;2023-04-03T08:32:36;3.78;;;2.67;;
21860;SDS011;11095;48.066;8.540;2023-04-03T08:35:02;3.75;;;3.30;;
21860;SDS011;11095;48.066;8.540;2023-04-03T08:37:31;4.35;;;3.33;;
21860;SDS011;11095;48.066;8.540;2023-04-03T08:39:59;3.30;;;2.85;;
21860;SDS011;11095;48.066;8.540;2023-04-03T08:48:15;4.80;;;3.40;;
21860;SDS011;11095;48.066;8.540;2023-04-03T08:50:55;5.43;;;3.45;;
21860;SDS011;11095;48.066;8.540;2023-04-03T08:53:28;3.80;;;3.22;;
21860;SDS011;11095;48.066;8.540;2023-04-03T08:55:57;4.78;;;3.28;;
21860;SDS011;11095;48.066;8.540;2023-04-03T08:58:31;3.55;;;3.08;;
21860;SDS011;11095;48.066;8.540;2023-04-03T09:01:27;3.50;;;2.97;;
21860;SDS011;11095;48.066;8.540;2023-04-03T09:06:34;4.80;;;3.28;;
21860;SDS011;11095;48.066;8.540;2023-04-03T09:14:17;4.93;;;3.40;;
21860;SDS011;11095;48.066;8.540;2023-04-03T09:16:54;4.82;;;3.30;;
21860;SDS011;11095;48.066;8.540;2023-04-03T09:19:28;4.22;;;3.20;;
21860;SDS011;11095;48.066;8.540;2023-04-03T09:24:57;3.22;;;2.92;;
21860;SDS011;11095;48.066;8.540;2023-04-03T09:27:37;3.92;;;3.15;;
21860;SDS011;11095;48.066;8.540;2023-04-03T09:30:03;5.20;;;3.00;;
21860;SDS011;11095;48.066;8.540;2023-04-03T09:32:33;3.90;;;2.97;;
21860;SDS011;11095;48.066;8.540;2023-04-03T09:35:04;3.97;;;2.97;;
21860;SDS011;11095;48.066;8.540;2023-04-03T09:37:44;4.53;;;2.83;;
21860;SDS011;11095;48.066;8.540;2023-04-03T09:42:59;5.85;;;3.95;;
21860;SDS011;11095;48.066;8.540;2023-04-03T09:45:41;3.80;;;3.38;;
21860;SDS011;11095;48.066;8.540;2023-04-03T09:50:41;5.07;;;3.40;;
21860;SDS011;11095;48.066;8.540;2023-04-03T09:55:55;4.63;;;3.38;;
21860;SDS011;11095;48.066;8.540;2023-04-03T09:58:31;5.38;;;3.65;;
21860;SDS011;11095;48.066;8.540;2023-04-03T10:01:20;5.20;;;3.58;;
21860;SDS011;11095;48.066;8.540;2023-04-03T10:07:03;4.55;;;3.40;;
21860;SDS011;11095;48.066;8.540;2023-04-03T10:09:54;4.57;;;3.45;;
21860;SDS011;11095;48.066;8.540;2023-04-03T10:12:25;6.13;;;3.50;;
21860;SDS011;11095;48.066;8.540;2023-04-03T10:29:16;4.45;;;3.10;;
21860;SDS011;11095;48.066;8.540;2023-04-03T10:36:45;4.78;;;3.40;;
21860;SDS011;11095;48.066;8.540;2023-04-03T10:39:30;4.85;;;3.58;;
21860;SDS011;11095;48.066;8.540;2023-04-03T10:42:08;5.88;;;4.00;;
21860;SDS011;11095;48.066;8.540;2023-04-03T10:45:15;4.63;;;3.60;;
21860;SDS011;11095;48.066;8.540;2023-04-03T10:48:04;5.00;;;3.72;;
21860;SDS011;11095;48.066;8.540;2023-04-03T10:51:22;6.00;;;4.28;;
21860;SDS011;11095;48.066;8.540;2023-04-03T10:53:55;4.80;;;4.30;;
21860;SDS011;11095;48.066;8.540;2023-04-03T10:59:02;7.78;;;4.15;;
21860;SDS011;11095;48.066;8.540;2023-04-03T11:01:44;6.82;;;4.70;;
21860;SDS011;11095;48.066;8.540;2023-04-03T11:04:12;4.97;;;3.83;;
21860;SDS011;11095;48.066;8.540;2023-04-03T11:06:44;5.65;;;4.20;;
21860;SDS011;11095;48.066;8.540;2023-04-03T11:09:24;5.95;;;4.05;;
21860;SDS011;11095;48.066;8.540;2023-04-03T11:12:23;4.47;;;3.92;;
21860;SDS011;11095;48.066;8.540;2023-04-03T11:14:53;4.68;;;3.92;;
21860;SDS011;11095;48.066;8.540;2023-04-03T11:17:25;5.50;;;3.95;;
21860;SDS011;11095;48.066;8.540;2023-04-03T11:22:43;5.47;;;4.15;;
21860;SDS011;11095;48.066;8.540;2023-04-03T11:25:15;5.15;;;4.07;;
21860;SDS011;11095;48.066;8.540;2023-04-03T11:27:56;5.70;;;4.28;;
21860;SDS011;11095;48.066;8.540;2023-04-03T11:36:08;4.82;;;3.65;;
21860;SDS011;11095;48.066;8.540;2023-04-03T11:38:41;4.97;;;4.00;;
21860;SDS011;11095;48.066;8.540;2023-04-03T11:41:09;4.60;;;3.53;;
21860;SDS011;11095;48.066;8.540;2023-04-03T11:43:40;4.97;;;3.92;;
21860;SDS011;11095;48.066;8.540;2023-04-03T11:46:20;4.57;;;3.55;;
21860;SDS011;11095;48.066;8.540;2023-04-03T11:48:46;4.90;;;3.88;;
21860;SDS011;11095;48.066;8.540;2023-04-03T11:53:42;4.72;;;3.90;;
21860;SDS011;11095;48.066;8.540;2023-04-03T12:01:46;4.45;;;3.83;;
21860;SDS011;11095;48.066;8.540;2023-04-03T12:04:14;5.72;;;3.72;;
21860;SDS011;11095;48.066;8.540;2023-04-03T12:06:49;6.53;;;4.00;;
21860;SDS011;11095;48.066;8.540;2023-04-03T12:09:28;5.05;;;3.65;;
21860;SDS011;11095;48.066;8.540;2023-04-03T12:14:52;5.38;;;3.90;;
21860;SDS011;11095;48.066;8.540;2023-04-03T12:17:27;3.88;;;3.47;;
21860;SDS011;11095;48.066;8.540;2023-04-03T12:19:55;3.95;;;3.55;;
21860;SDS011;11095;48.066;8.540;2023-04-03T12:22:21;5.18;;;3.38;;
21860;SDS011;11095;48.066;8.540;2023-04-03T12:24:48;3.80;;;3.20;;
21860;SDS011;11095;48.066;8.540;2023-04-03T12:29:59;4.82;;;3.72;;
21860;SDS011;11095;48.066;8.540;2023-04-03T12:48:39;3.83;;;3.30;;
21860;SDS011;11095;48.066;8.540;2023-04-03T12:51:22;5.13;;;3.15;;
21860;SDS011;11095;48.066;8.540;2023-04-03T12:54:13;4.93;;;3.25;;
21860;SDS011;11095;48.066;8.540;2023-04-03T12:56:39;5.97;;;3.33;;
21860;SDS011;11095;48.066;8.540;2023-04-03T12:59:16;3.55;;;3.22;;
21860;SDS011;11095;48.066;8.540;2023-04-03T13:01:59;3.65;;;3.20;;
21860;SDS011;11095;48.066;8.540;2023-04-03T13:04:30;5.68;;;3.72;;
21860;SDS011;11095;48.066;8.540;2023-04-03T13:06:57;3.88;;;3.40;;
21860;SDS011;11095;48.066;8.540;2023-04-03T13:09:24;3.47;;;3.13;;
21860;SDS011;11095;48.066;8.540;2023-04-03T13:11:57;5.18;;;3.38;;
21860;SDS011;11095;48.066;8.540;2023-04-03T13:14:24;4.55;;;3.47;;
21860;SDS011;11095;48.066;8.540;2023-04-03T13:16:58;6.68;;;3.60;;
21860;SDS011;11095;48.066;8.540;2023-04-03T13:19:28;4.80;;;3.40;;
21860;SDS011;11095;48.066;8.540;2023-04-03T13:21:58;4.82;;;3.25;;
21860;SDS011;11095;48.066;8.540;2023-04-03T13:24:28;4.25;;;3.40;;
21860;SDS011;11095;48.066;8.540;2023-04-03T13:26:56;4.72;;;3.70;;
21860;SDS011;11095;48.066;8.540;2023-04-03T13:29:27;4.68;;;3.38;;
21860;SDS011;11095;48.066;8.540;2023-04-03T13:31:59;3.83;;;3.10;;
21860;SDS011;11095;48.066;8.540;2023-04-03T13:34:26;6.18;;;3.70;;
21860;SDS011;11095;48.066;8.540;2023-04-03T13:36:55;4.07;;;3.30;;
21860;SDS011;11095;48.066;8.540;2023-04-03T13:39:33;4.53;;;3.22;;
21860;SDS011;11095;48.066;8.540;2023-04-03T13:42:24;4.93;;;3.30;;
21860;SDS011;11095;48.066;8.540;2023-04-03T13:47:45;3.70;;;3.05;;
21860;SDS011;11095;48.066;8.540;2023-04-03T13:50:20;3.17;;;2.88;;
21860;SDS011;11095;48.066;8.540;2023-04-03T13:52:54;3.45;;;3.15;;
21860;SDS011;11095;48.066;8.540;2023-04-03T13:55:26;4.70;;;3.15;;
21860;SDS011;11095;48.066;8.540;2023-04-03T13:57:57;4.65;;;3.20;;
21860;SDS011;11095;48.066;8.540;2023-04-03T14:05:50;3.58;;;2.80;;
21860;SDS011;11095;48.066;8.540;2023-04-03T14:08:16;4.40;;;3.00;;
21860;SDS011;11095;48.066;8.540;2023-04-03T14:10:42;4.38;;;2.85;;
21860;SDS011;11095;48.066;8.540;2023-04-03T14:13:12;3.90;;;2.97;;
21860;SDS011;11095;48.066;8.540;2023-04-03T14:15:40;4.22;;;2.90;;
21860;SDS011;11095;48.066;8.540;2023-04-03T14:18:09;4.63;;;3.00;;
21860;SDS011;11095;48.066;8.540;2023-04-03T14:20:36;5.72;;;3.10;;
21860;SDS011;11095;48.066;8.540;2023-04-03T14:23:02;2.95;;;2.65;;
21860;SDS011;11095;48.066;8.540;2023-04-03T14:25:28;3.83;;;3.10;;
21860;SDS011;11095;48.066;8.540;2023-04-03T14:27:54;3.00;;;2.75;;
21860;SDS011;11095;48.066;8.540;2023-04-03T14:30:24;5.80;;;3.20;;
21860;SDS011;11095;48.066;8.540;2023-04-03T14:32:56;3.50;;;2.60;;
21860;SDS011;11095;48.066;8.540;2023-04-03T14:35:22;3.95;;;2.80;;
21860;SDS011;11095;48.066;8.540;2023-04-03T14:37:48;3.78;;;2.95;;
21860;SDS011;11095;48.066;8.540;2023-04-03T14:40:17;3.50;;;3.00;;
21860;SDS011;11095;48.066;8.540;2023-04-03T14:45:13;4.82;;;2.95;;
21860;SDS011;11095;48.066;8.540;2023-04-03T14:47:40;5.20;;;3.05;;
21860;SDS011;11095;48.066;8.540;2023-04-03T14:50:14;3.67;;;2.88;;
21860;SDS011;11095;48.066;8.540;2023-04-03T14:52:41;4.40;;;2.88;;
21860;SDS011;11095;48.066;8.540;2023-04-03T14:55:07;5.30;;;3.10;;
21860;SDS011;11095;48.066;8.540;2023-04-03T14:57:33;3.90;;;3.30;;
21860;SDS011;11095;48.066;8.540;2023-04-03T14:59:59;3.92;;;2.90;;
21860;SDS011;11095;48.066;8.540;2023-04-03T15:02:28;4.25;;;3.17;;
21860;SDS011;11095;48.066;8.540;2023-04-03T15:04:58;3.55;;;2.90;;
21860;SDS011;11095;48.066;8.540;2023-04-03T15:07:26;3.75;;;2.53;;
21860;SDS011;11095;48.066;8.540;2023-04-03T15:09:54;6.07;;;2.60;;
21860;SDS011;11095;48.066;8.540;2023-04-03T15:12:24;4.33;;;2.60;;
21860;SDS011;11095;48.066;8.540;2023-04-03T15:14:51;3.58;;;2.70;;
21860;SDS011;11095;48.066;8.540;2023-04-03T15:17:19;4.78;;;2.60;;
21860;SDS011;11095;48.066;8.540;2023-04-03T15:19:47;4.63;;;2.42;;
21860;SDS011;11095;48.066;8.540;2023-04-03T15:22:14;3.20;;;2.50;;
21860;SDS011;11095;48.066;8.540;2023-04-03T15:24:44;3.45;;;2.47;;
21860;SDS011;11095;48.066;8.540;2023-04-03T15:27:10;3.20;;;2.35;;
21860;SDS011;11095;48.066;8.540;2023-04-03T15:29:37;3.35;;;2.40;;
21860;SDS011;11095;48.066;8.540;2023-04-03T15:32:04;3.83;;;2.38;;
21860;SDS011;11095;48.066;8.540;2023-04-03T15:34:30;4.22;;;2.40;;
21860;SDS011;11095;48.066;8.540;2023-04-03T15:36:56;3.97;;;2.70;;
21860;SDS011;11095;48.066;8.540;2023-04-03T15:39:22;3.85;;;2.78;;
21860;SDS011;11095;48.066;8.540;2023-04-03T15:41:49;4.80;;;2.40;;
21860;SDS011;11095;48.066;8.540;2023-04-03T15:44:16;5.47;;;2.63;;
21860;SDS011;11095;48.066;8.540;2023-04-03T15:46:43;4.68;;;2.42;;
21860;SDS011;11095;48.066;8.540;2023-04-03T15:49:09;3.17;;;2.33;;
21860;SDS011;11095;48.066;8.540;2023-04-03T15:51:35;3.63;;;2.30;;
21860;SDS011;11095;48.066;8.540;2023-04-03T15:54:01;3.03;;;2.30;;
21860;SDS011;11095;48.066;8.540;2023-04-03T15:56:26;3.83;;;2.42;;
21860;SDS011;11095;48.066;8.540;2023-04-03T15:58:52;4.28;;;2.75;;
21860;SDS011;11095;48.066;8.540;2023-04-03T16:01:18;4.63;;;2.80;;
21860;SDS011;11095;48.066;8.540;2023-04-03T16:03:43;4.88;;;3.08;;
21860;SDS011;11095;48.066;8.540;2023-04-03T16:06:16;3.95;;;3.00;;
21860;SDS011;11095;48.066;8.540;2023-04-03T16:08:43;5.68;;;2.90;;
21860;SDS011;11095;48.066;8.540;2023-04-03T16:11:10;4.25;;;2.83;;
21860;SDS011;11095;48.066;8.540;2023-04-03T16:13:36;4.22;;;2.53;;
21860;SDS011;11095;48.066;8.540;2023-04-03T16:16:02;4.68;;;2.90;;
21860;SDS011;11095;48.066;8.540;2023-04-03T16:18:29;3.55;;;2.35;;
21860;SDS011;11095;48.066;8.540;2023-04-03T16:20:55;3.42;;;2.60;;
21860;SDS011;11095;48.066;8.540;2023-04-03T16:23:20;3.15;;;2.60;;
21860;SDS011;11095;48.066;8.540;2023-04-03T16:25:47;3.42;;;2.67;;
21860;SDS011;11095;48.066;8.540;2023-04-03T16:28:13;4.80;;;3.25;;
21860;SDS011;11095;48.066;8.540;2023-04-03T16:30:42;3.95;;;2.75;;